Time;durP1;ratioP1;P1;durP2;ratioP2;P2;SDS_P1;SDS_P2;PMS_P1;PMS_P2;Temp;Humidity;BMP_temperature;BMP_pressure;BME280_temperature;BME280_humidity;BME280_pressure;Samples;Min_cycle;Max_cycle;Signal;HPM_P1;HPM_P2
2024/01/28 00:00:44;;;;;;;;;35.00;32.50;;;;;;;;5101811;28;10201;-83
2024/01/28 00:03:10;;;;;;;;;41.25;34.50;;;;;;;;5093203;28;8922;-85
2024/01/28 00:05:36;;;;;;;;;38.50;31.75;;;;;;;;5074637;28;8823;-85
2024/01/28 00:08:03;;;;;;;;;37.00;34.75;;;;;;;;5083558;28;8733;-86
2024/01/28 00:10:28;;;;;;;;;35.50;30.25;;;;;;;;5075783;28;10112;-85
2024/01/28 00:12:54;;;;;;;;;40.00;30.00;;;;;;;;5076087;28;10191;-84
2024/01/28 00:15:19;;;;;;;;;35.75;33.25;;;;;;;;5094279;28;8839;-86
2024/01/28 00:17:44;;;;;;;;;38.50;32.00;;;;;;;;5086629;28;8790;-85
2024/01/28 00:20:10;;;;;;;;;40.00;32.75;;;;;;;;5085464;28;8822;-84
2024/01/28 00:22:35;;;;;;;;;36.25;30.25;;;;;;;;5081500;28;8832;-84
2024/01/28 00:25:00;;;;;;;;;34.75;29.25;;;;;;;;5077517;28;8812;-83
2024/01/28 00:27:26;;;;;;;;;34.25;29.75;;;;;;;;5074510;28;8844;-83
2024/01/28 00:29:51;;;;;;;;;35.00;29.25;;;;;;;;5093107;28;8804;-82
2024/01/28 00:32:16;;;;;;;;;30.75;29.75;;;;;;;;5066242;28;9132;-86
2024/01/28 00:34:43;;;;;;;;;27.25;25.50;;;;;;;;5090111;28;8881;-84
2024/01/28 00:37:08;;;;;;;;;36.25;29.00;;;;;;;;5062600;28;8798;-84
2024/01/28 00:39:35;;;;;;;;;32.50;29.75;;;;;;;;5092465;28;9941;-85
2024/01/28 00:42:00;;;;;;;;;27.00;25.75;;;;;;;;5094515;28;8755;-85
2024/01/28 00:44:26;;;;;;;;;34.50;30.25;;;;;;;;5102102;28;10145;-84
2024/01/28 00:46:51;;;;;;;;;35.00;27.00;;;;;;;;5098312;28;8828;-84
2024/01/28 00:49:16;;;;;;;;;32.50;28.00;;;;;;;;5109231;28;8792;-82
2024/01/28 00:51:41;;;;;;;;;25.75;24.75;;;;;;;;5079615;28;8809;-83
2024/01/28 00:54:07;;;;;;;;;31.50;29.00;;;;;;;;5077950;28;8833;-82
2024/01/28 00:56:32;;;;;;;;;35.00;31.50;;;;;;;;5064101;28;8822;-82
2024/01/28 00:58:57;;;;;;;;;37.75;31.00;;;;;;;;5094090;28;8798;-84
2024/01/28 01:01:24;;;;;;;;;33.75;26.00;;;;;;;;5105625;28;8955;-82
2024/01/28 01:03:49;;;;;;;;;35.00;28.75;;;;;;;;5098384;28;8877;-84
2024/01/28 01:06:15;;;;;;;;;31.50;26.50;;;;;;;;5086024;28;10031;-84
2024/01/28 01:08:40;;;;;;;;;25.25;23.75;;;;;;;;5102845;28;8759;-85
2024/01/28 01:11:06;;;;;;;;;29.75;29.25;;;;;;;;5094178;28;8833;-81
2024/01/28 01:13:32;;;;;;;;;31.75;23.75;;;;;;;;5061314;28;8840;-83
2024/01/28 01:15:58;;;;;;;;;29.00;27.50;;;;;;;;5058595;28;8901;-84
2024/01/28 01:18:24;;;;;;;;;32.75;27.75;;;;;;;;5089666;28;10215;-83
2024/01/28 01:20:49;;;;;;;;;34.00;28.00;;;;;;;;5095699;28;8821;-82
2024/01/28 01:23:14;;;;;;;;;24.25;19.50;;;;;;;;5102018;28;9180;-82
2024/01/28 01:25:40;;;;;;;;;24.25;23.75;;;;;;;;5096156;28;8821;-82
2024/01/28 01:28:05;;;;;;;;;32.00;25.25;;;;;;;;5072968;28;8845;-83
2024/01/28 01:30:30;;;;;;;;;35.75;25.50;;;;;;;;5091130;28;8807;-84
2024/01/28 01:32:56;;;;;;;;;30.75;23.50;;;;;;;;5096909;28;8851;-82
2024/01/28 01:35:21;;;;;;;;;29.25;23.25;;;;;;;;5079455;28;8834;-82
2024/01/28 01:37:47;;;;;;;;;30.75;26.00;;;;;;;;5074509;28;8810;-83
2024/01/28 01:40:14;;;;;;;;;27.50;23.75;;;;;;;;5070517;28;8868;-83
2024/01/28 01:42:39;;;;;;;;;29.25;27.00;;;;;;;;5073380;28;8889;-83
2024/01/28 01:45:05;;;;;;;;;33.25;29.50;;;;;;;;5068923;28;10498;-85
2024/01/28 01:47:30;;;;;;;;;38.50;29.25;;;;;;;;5092042;28;9620;-84
2024/01/28 01:49:56;;;;;;;;;27.50;22.75;;;;;;;;5091971;28;8849;-83
2024/01/28 01:52:21;;;;;;;;;28.25;26.00;;;;;;;;5074620;28;8852;-82
2024/01/28 01:54:47;;;;;;;;;39.00;28.50;;;;;;;;5093315;28;8849;-82
2024/01/28 01:57:14;;;;;;;;;31.50;29.00;;;;;;;;5096816;28;8798;-82
2024/01/28 01:59:40;;;;;;;;;31.00;28.75;;;;;;;;5075755;28;8795;-85
2024/01/28 02:02:08;;;;;;;;;38.00;31.25;;;;;;;;5062768;28;10217;-82
2024/01/28 02:04:34;;;;;;;;;30.75;22.75;;;;;;;;5060299;28;9428;-82
2024/01/28 02:07:00;;;;;;;;;27.50;20.25;;;;;;;;5085319;28;10156;-83
2024/01/28 02:09:25;;;;;;;;;16.50;13.75;;;;;;;;5095440;28;8837;-83
2024/01/28 02:11:50;;;;;;;;;33.75;24.50;;;;;;;;5074989;28;8827;-81
2024/01/28 02:14:29;;;;;;;;;36.00;28.00;;;;;;;;5070046;28;8844;-83
2024/01/28 02:16:54;;;;;;;;;25.50;25.00;;;;;;;;5063856;28;8791;-82
2024/01/28 02:19:20;;;;;;;;;28.00;26.00;;;;;;;;5082666;28;10286;-82
2024/01/28 02:21:45;;;;;;;;;30.75;27.25;;;;;;;;5093034;28;8832;-82
2024/01/28 02:24:13;;;;;;;;;28.50;22.50;;;;;;;;5092298;28;8833;-85
2024/01/28 02:26:39;;;;;;;;;28.25;23.75;;;;;;;;5086855;28;8775;-86
2024/01/28 02:29:05;;;;;;;;;37.75;24.75;;;;;;;;5099927;28;10264;-84
2024/01/28 02:31:30;;;;;;;;;31.75;23.00;;;;;;;;5068410;28;10177;-83
2024/01/28 02:33:55;;;;;;;;;35.50;30.25;;;;;;;;5075933;28;8787;-83
2024/01/28 02:36:20;;;;;;;;;34.00;26.00;;;;;;;;5089527;28;8833;-83
2024/01/28 02:38:46;;;;;;;;;17.50;17.50;;;;;;;;5088350;28;8903;-84
2024/01/28 02:41:11;;;;;;;;;32.00;24.25;;;;;;;;5081163;28;8858;-82
2024/01/28 02:43:37;;;;;;;;;24.50;24.50;;;;;;;;5080137;28;8801;-84
2024/01/28 02:46:02;;;;;;;;;25.25;22.75;;;;;;;;5093022;28;10949;-81
2024/01/28 02:48:27;;;;;;;;;32.25;22.25;;;;;;;;5072139;28;8826;-84
2024/01/28 02:50:53;;;;;;;;;31.50;25.00;;;;;;;;5099704;28;8815;-87
2024/01/28 02:53:19;;;;;;;;;27.50;26.00;;;;;;;;5088253;28;8828;-87
2024/01/28 02:55:44;;;;;;;;;30.25;24.50;;;;;;;;5083655;28;8949;-83
2024/01/28 02:58:09;;;;;;;;;23.00;21.00;;;;;;;;5103087;28;11639;-87
2024/01/28 03:00:36;;;;;;;;;29.25;24.00;;;;;;;;5085673;28;8852;-84
2024/01/28 03:03:03;;;;;;;;;33.00;27.75;;;;;;;;5070418;28;8806;-82
2024/01/28 03:05:28;;;;;;;;;28.75;24.50;;;;;;;;5075456;28;10256;-82
2024/01/28 03:07:53;;;;;;;;;27.00;24.00;;;;;;;;5070130;28;10103;-84
2024/01/28 03:10:19;;;;;;;;;30.75;23.00;;;;;;;;5069491;28;8813;-83
2024/01/28 03:12:44;;;;;;;;;29.00;24.50;;;;;;;;5092102;28;8823;-84
2024/01/28 03:15:09;;;;;;;;;25.75;23.00;;;;;;;;5069262;28;8814;-82
2024/01/28 03:17:35;;;;;;;;;31.00;23.75;;;;;;;;5088803;28;8826;-85
2024/01/28 03:20:00;;;;;;;;;30.50;27.25;;;;;;;;5072611;28;9429;-84
2024/01/28 03:22:25;;;;;;;;;23.50;22.50;;;;;;;;5073609;28;8920;-83
2024/01/28 03:24:52;;;;;;;;;28.75;23.75;;;;;;;;5067168;28;8817;-83
2024/01/28 03:27:17;;;;;;;;;29.50;26.50;;;;;;;;5089311;28;8802;-83
2024/01/28 03:29:42;;;;;;;;;30.25;26.25;;;;;;;;5095275;28;10398;-86
2024/01/28 03:32:07;;;;;;;;;27.50;21.50;;;;;;;;5101698;28;8835;-84
2024/01/28 03:34:33;;;;;;;;;29.00;23.50;;;;;;;;5089807;28;8830;-84
2024/01/28 03:36:58;;;;;;;;;30.00;23.75;;;;;;;;5093351;28;8945;-82
2024/01/28 03:39:24;;;;;;;;;27.50;23.00;;;;;;;;5074817;28;8863;-82
2024/01/28 03:41:50;;;;;;;;;30.25;24.00;;;;;;;;5084058;28;8811;-83
2024/01/28 03:44:20;;;;;;;;;29.00;22.75;;;;;;;;5087174;28;8845;-83
2024/01/28 03:46:45;;;;;;;;;28.00;24.25;;;;;;;;5084230;28;8772;-83
2024/01/28 03:49:11;;;;;;;;;29.50;25.75;;;;;;;;5078562;28;10492;-83
2024/01/28 03:51:36;;;;;;;;;31.00;25.50;;;;;;;;5073059;28;8827;-83
2024/01/28 03:54:04;;;;;;;;;29.25;25.00;;;;;;;;5065243;28;8844;-84
2024/01/28 03:56:29;;;;;;;;;27.00;22.25;;;;;;;;5092884;28;8803;-83
2024/01/28 03:58:54;;;;;;;;;24.25;23.75;;;;;;;;5091637;28;10187;-83
2024/01/28 04:01:29;;;;;;;;;27.75;21.50;;;;;;;;5099013;28;8827;-82
2024/01/28 04:03:57;;;;;;;;;23.25;21.00;;;;;;;;5067742;28;8791;-82
2024/01/28 04:06:23;;;;;;;;;14.75;12.00;;;;;;;;5096874;28;10338;-84
2024/01/28 04:08:49;;;;;;;;;8.50;7.75;;;;;;;;5091411;28;10134;-82
2024/01/28 04:11:14;;;;;;;;;31.75;25.25;;;;;;;;5069719;28;8895;-83
2024/01/28 04:13:40;;;;;;;;;25.00;21.50;;;;;;;;5062597;28;10086;-84
2024/01/28 04:16:05;;;;;;;;;24.50;19.75;;;;;;;;5088382;28;9605;-83
2024/01/28 04:18:30;;;;;;;;;23.75;22.75;;;;;;;;5084316;28;8822;-83
2024/01/28 04:20:56;;;;;;;;;20.75;20.75;;;;;;;;5066044;28;8836;-84
2024/01/28 04:23:22;;;;;;;;;31.50;24.25;;;;;;;;5098197;28;8807;-84
2024/01/28 04:25:47;;;;;;;;;30.50;25.25;;;;;;;;5083229;28;10142;-82
2024/01/28 04:28:12;;;;;;;;;17.25;14.00;;;;;;;;5115422;28;10098;-84
2024/01/28 04:30:37;;;;;;;;;27.50;21.75;;;;;;;;5117107;28;8923;-84
2024/01/28 04:33:03;;;;;;;;;25.00;18.00;;;;;;;;5071804;28;8826;-84
2024/01/28 04:35:28;;;;;;;;;22.75;18.25;;;;;;;;5108649;28;8808;-83
2024/01/28 04:37:53;;;;;;;;;28.00;19.25;;;;;;;;5128490;28;8919;-84
2024/01/28 04:40:18;;;;;;;;;22.25;20.50;;;;;;;;5121397;28;8956;-83
2024/01/28 04:42:44;;;;;;;;;29.25;26.25;;;;;;;;5073952;28;8822;-84
2024/01/28 04:45:10;;;;;;;;;35.25;24.50;;;;;;;;5063276;28;8830;-84
2024/01/28 04:47:36;;;;;;;;;28.25;23.25;;;;;;;;5077493;28;8783;-85
2024/01/28 04:50:01;;;;;;;;;25.00;21.75;;;;;;;;5096376;28;10029;-84
2024/01/28 04:52:27;;;;;;;;;28.75;19.75;;;;;;;;5094417;28;10082;-83
2024/01/28 04:54:52;;;;;;;;;25.25;21.00;;;;;;;;5073809;28;8842;-84
2024/01/28 04:57:17;;;;;;;;;25.00;22.00;;;;;;;;5090534;28;8979;-84
2024/01/28 04:59:43;;;;;;;;;27.25;22.75;;;;;;;;5095572;28;8880;-84
2024/01/28 05:02:08;;;;;;;;;30.25;23.25;;;;;;;;5094465;28;8850;-83
2024/01/28 05:04:33;;;;;;;;;28.50;23.00;;;;;;;;5091448;28;8818;-83
2024/01/28 05:06:59;;;;;;;;;22.50;15.00;;;;;;;;5093614;28;8941;-85
2024/01/28 05:09:24;;;;;;;;;29.00;20.50;;;;;;;;5071093;28;8815;-83
2024/01/28 05:11:49;;;;;;;;;20.00;17.75;;;;;;;;5092120;28;8925;-86
2024/01/28 05:14:15;;;;;;;;;24.25;21.00;;;;;;;;5090189;28;8934;-84
2024/01/28 05:16:41;;;;;;;;;25.50;19.50;;;;;;;;5087043;28;8819;-83
2024/01/28 05:19:07;;;;;;;;;19.25;17.50;;;;;;;;5071430;28;8810;-83
2024/01/28 05:21:32;;;;;;;;;28.00;18.00;;;;;;;;5072385;28;9924;-84
2024/01/28 05:23:58;;;;;;;;;22.75;18.50;;;;;;;;5074873;28;8810;-86
2024/01/28 05:26:25;;;;;;;;;17.75;17.75;;;;;;;;5072764;28;8806;-83
2024/01/28 05:28:51;;;;;;;;;22.25;18.50;;;;;;;;5072986;28;8935;-83
2024/01/28 05:31:16;;;;;;;;;25.00;19.50;;;;;;;;5074173;28;10139;-86
2024/01/28 05:33:42;;;;;;;;;22.75;21.25;;;;;;;;5082435;28;8843;-80
2024/01/28 05:36:14;;;;;;;;;23.00;18.75;;;;;;;;5083642;28;8807;-80
2024/01/28 05:38:39;;;;;;;;;17.00;16.75;;;;;;;;5082600;28;8785;-80
2024/01/28 05:41:05;;;;;;;;;23.75;19.00;;;;;;;;5065671;28;9930;-81
2024/01/28 05:43:30;;;;;;;;;25.50;18.75;;;;;;;;5079033;28;8810;-81
2024/01/28 05:45:55;;;;;;;;;16.50;13.00;;;;;;;;5093230;28;8921;-80
2024/01/28 05:48:21;;;;;;;;;26.25;18.00;;;;;;;;5090992;28;8811;-82
2024/01/28 05:50:46;;;;;;;;;18.75;14.50;;;;;;;;5072392;28;8923;-81
2024/01/28 05:53:11;;;;;;;;;23.00;19.00;;;;;;;;5070125;28;8838;-80
2024/01/28 05:55:36;;;;;;;;;22.50;16.25;;;;;;;;5071751;28;8827;-82
2024/01/28 05:58:02;;;;;;;;;25.25;22.25;;;;;;;;5084942;28;8931;-80
2024/01/28 06:00:27;;;;;;;;;26.50;21.25;;;;;;;;5087041;28;8838;-80
2024/01/28 06:02:52;;;;;;;;;17.75;16.50;;;;;;;;5061848;28;8838;-81
2024/01/28 06:05:17;;;;;;;;;17.75;15.50;;;;;;;;5063665;28;8933;-80
2024/01/28 06:07:43;;;;;;;;;23.75;18.25;;;;;;;;5090408;28;9624;-82
2024/01/28 06:10:08;;;;;;;;;22.50;17.75;;;;;;;;5079487;28;9650;-80
2024/01/28 06:12:33;;;;;;;;;21.00;18.75;;;;;;;;5072090;28;8822;-81
2024/01/28 06:15:04;;;;;;;;;18.50;16.25;;;;;;;;5085192;28;8848;-80
2024/01/28 06:17:29;;;;;;;;;20.50;17.50;;;;;;;;5089641;28;8797;-81
2024/01/28 06:19:55;;;;;;;;;22.75;16.75;;;;;;;;5077066;28;9846;-80
2024/01/28 06:22:20;;;;;;;;;19.50;15.75;;;;;;;;5096263;28;8817;-81
2024/01/28 06:24:45;;;;;;;;;18.25;15.00;;;;;;;;5081912;28;8810;-80
2024/01/28 06:27:10;;;;;;;;;15.75;13.75;;;;;;;;5089380;28;8807;-79
2024/01/28 06:29:36;;;;;;;;;16.25;16.25;;;;;;;;5088559;28;8862;-81
2024/01/28 06:32:01;;;;;;;;;23.75;17.25;;;;;;;;5089643;28;8830;-79
2024/01/28 06:34:27;;;;;;;;;20.50;18.00;;;;;;;;5088810;28;8849;-79
2024/01/28 06:36:52;;;;;;;;;20.50;19.50;;;;;;;;5076132;28;8840;-79
2024/01/28 06:39:22;;;;;;;;;12.25;11.25;;;;;;;;5082285;28;8858;-84
2024/01/28 06:41:48;;;;;;;;;19.25;17.25;;;;;;;;5096504;28;9313;-84
2024/01/28 06:44:13;;;;;;;;;21.00;16.00;;;;;;;;5095570;28;10125;-83
2024/01/28 06:46:38;;;;;;;;;20.75;18.75;;;;;;;;5106221;28;8849;-81
2024/01/28 06:49:05;;;;;;;;;23.75;19.50;;;;;;;;5087079;28;8811;-82
2024/01/28 06:51:30;;;;;;;;;15.50;15.25;;;;;;;;5088807;28;8807;-82
2024/01/28 06:53:57;;;;;;;;;17.25;15.50;;;;;;;;5094585;28;9781;-82
2024/01/28 06:56:22;;;;;;;;;24.75;18.75;;;;;;;;5086455;28;8911;-85
2024/01/28 06:58:48;;;;;;;;;17.00;16.75;;;;;;;;5074236;28;9986;-84
2024/01/28 07:01:14;;;;;;;;;29.75;17.00;;;;;;;;5074084;28;8941;-84
2024/01/28 07:03:39;;;;;;;;;23.00;21.25;;;;;;;;5058159;28;9564;-81
2024/01/28 07:06:04;;;;;;;;;20.25;15.50;;;;;;;;5071435;28;8958;-82
2024/01/28 07:08:30;;;;;;;;;21.50;18.50;;;;;;;;5074942;28;8822;-83
2024/01/28 07:10:56;;;;;;;;;18.25;15.75;;;;;;;;5063170;28;9793;-83
2024/01/28 07:13:22;;;;;;;;;23.75;18.75;;;;;;;;5069572;28;8799;-83
2024/01/28 07:15:49;;;;;;;;;16.00;14.25;;;;;;;;5070950;28;10177;-81
2024/01/28 07:18:14;;;;;;;;;18.25;18.25;;;;;;;;5103613;28;8807;-83
2024/01/28 07:20:40;;;;;;;;;21.75;19.00;;;;;;;;5084683;28;9915;-82
2024/01/28 07:23:06;;;;;;;;;21.00;15.25;;;;;;;;5097747;28;9515;-83
2024/01/28 07:25:31;;;;;;;;;17.00;15.50;;;;;;;;5097934;28;8818;-83
2024/01/28 07:27:56;;;;;;;;;19.25;16.25;;;;;;;;5087357;28;9920;-82
2024/01/28 07:30:23;;;;;;;;;16.00;16.00;;;;;;;;5077599;28;8839;-81
2024/01/28 07:32:48;;;;;;;;;21.25;18.25;;;;;;;;5109392;28;8759;-82
2024/01/28 07:35:14;;;;;;;;;9.50;4.50;;;;;;;;5076348;28;9782;-81
2024/01/28 07:37:39;;;;;;;;;16.00;16.00;;;;;;;;5099866;28;8769;-78
2024/01/28 07:40:05;;;;;;;;;17.50;17.00;;;;;;;;5078966;28;10061;-83
2024/01/28 07:42:30;;;;;;;;;18.00;16.25;;;;;;;;5073415;28;8846;-83
2024/01/28 07:44:55;;;;;;;;;18.00;14.25;;;;;;;;5074416;28;8827;-78
2024/01/28 07:47:21;;;;;;;;;26.00;16.75;;;;;;;;5081303;28;8828;-76
2024/01/28 07:49:46;;;;;;;;;19.50;14.00;;;;;;;;5091422;28;8795;-78
2024/01/28 07:52:11;;;;;;;;;23.00;19.50;;;;;;;;5091325;28;8844;-77
2024/01/28 07:54:36;;;;;;;;;16.50;14.75;;;;;;;;5082353;28;8807;-76
2024/01/28 07:57:37;;;;;;;;;19.75;15.00;;;;;;;;5101296;28;9578;-84
2024/01/28 08:00:04;;;;;;;;;18.50;17.75;;;;;;;;5088426;28;8823;-77
2024/01/28 08:02:30;;;;;;;;;20.50;19.75;;;;;;;;5096157;28;10034;-75
2024/01/28 08:04:55;;;;;;;;;16.00;14.75;;;;;;;;5073275;28;10029;-74
2024/01/28 08:07:20;;;;;;;;;21.75;21.25;;;;;;;;5101852;28;8817;-76
2024/01/28 08:09:45;;;;;;;;;21.00;20.50;;;;;;;;5073088;28;8837;-75
2024/01/28 08:12:10;;;;;;;;;24.25;19.75;;;;;;;;5082853;28;8858;-77
2024/01/28 08:14:36;;;;;;;;;20.25;19.25;;;;;;;;5083990;28;8819;-75
2024/01/28 08:17:02;;;;;;;;;25.50;21.75;;;;;;;;5069892;28;8815;-76
2024/01/28 08:19:27;;;;;;;;;27.50;20.75;;;;;;;;5084923;28;8831;-76
2024/01/28 08:21:52;;;;;;;;;30.50;25.50;;;;;;;;5072620;28;8850;-76
2024/01/28 08:24:17;;;;;;;;;25.00;21.50;;;;;;;;5090848;28;8853;-77
2024/01/28 08:26:43;;;;;;;;;25.75;19.75;;;;;;;;5075796;28;8832;-76
2024/01/28 08:29:17;;;;;;;;;15.25;13.00;;;;;;;;5085623;28;8884;-76
2024/01/28 08:31:42;;;;;;;;;21.25;20.00;;;;;;;;5069142;28;8806;-77
2024/01/28 08:34:07;;;;;;;;;22.00;19.75;;;;;;;;5078705;28;10222;-78
2024/01/28 08:36:33;;;;;;;;;23.75;20.50;;;;;;;;5081537;28;8807;-79
2024/01/28 08:38:58;;;;;;;;;28.50;22.00;;;;;;;;5072799;28;8923;-76
2024/01/28 08:41:23;;;;;;;;;30.25;21.25;;;;;;;;5081776;28;8848;-77
2024/01/28 08:43:48;;;;;;;;;26.25;21.00;;;;;;;;5076093;28;8803;-78
2024/01/28 08:46:14;;;;;;;;;25.00;21.50;;;;;;;;5091382;28;8931;-77
2024/01/28 08:48:39;;;;;;;;;23.25;20.50;;;;;;;;5090278;28;8861;-76
2024/01/28 08:51:04;;;;;;;;;27.00;19.75;;;;;;;;5087237;28;8851;-77
2024/01/28 08:53:29;;;;;;;;;30.00;25.75;;;;;;;;5081690;28;8852;-77
2024/01/28 08:55:55;;;;;;;;;24.00;21.50;;;;;;;;5085590;28;8842;-76
2024/01/28 08:58:21;;;;;;;;;28.25;23.75;;;;;;;;5089426;28;8817;-76
2024/01/28 09:00:46;;;;;;;;;24.00;22.50;;;;;;;;5074476;28;8844;-76
2024/01/28 09:03:12;;;;;;;;;23.50;19.50;;;;;;;;5060253;28;8819;-76
2024/01/28 09:05:37;;;;;;;;;33.50;27.25;;;;;;;;5087718;28;8842;-83
2024/01/28 09:08:03;;;;;;;;;29.75;24.75;;;;;;;;5058586;28;9253;-78
2024/01/28 09:10:28;;;;;;;;;24.25;21.50;;;;;;;;5085307;28;9683;-77
2024/01/28 09:12:53;;;;;;;;;32.25;26.75;;;;;;;;5075598;28;9070;-79
2024/01/28 09:15:18;;;;;;;;;24.75;22.00;;;;;;;;5081974;28;8810;-79
2024/01/28 09:17:44;;;;;;;;;28.00;26.00;;;;;;;;5100674;28;8871;-78
2024/01/28 09:20:09;;;;;;;;;29.25;25.75;;;;;;;;5095110;28;8861;-78
2024/01/28 09:22:45;;;;;;;;;27.00;25.50;;;;;;;;5082050;28;8801;-81
2024/01/28 09:25:16;;;;;;;;;30.50;23.50;;;;;;;;5081789;28;8757;-81
2024/01/28 09:27:43;;;;;;;;;24.25;17.25;;;;;;;;5072400;28;9834;-79
2024/01/28 09:30:16;;;;;;;;;28.50;25.25;;;;;;;;5076801;28;9888;-81
2024/01/28 09:32:41;;;;;;;;;31.75;28.75;;;;;;;;5092113;28;9807;-81
2024/01/28 09:35:07;;;;;;;;;30.25;23.25;;;;;;;;5091935;28;9862;-81
2024/01/28 09:37:32;;;;;;;;;31.00;27.75;;;;;;;;5095333;28;8870;-78
2024/01/28 09:40:04;;;;;;;;;28.25;23.75;;;;;;;;5078314;28;8831;-79
2024/01/28 09:43:01;;;;;;;;;20.75;17.50;;;;;;;;5086400;28;8804;-83
2024/01/28 09:45:27;;;;;;;;;22.67;20.67;;;;;;;;5085159;28;9531;-83
2024/01/28 09:47:53;;;;;;;;;21.33;20.33;;;;;;;;5064676;28;9524;-82
2024/01/28 09:50:19;;;;;;;;;26.00;23.00;;;;;;;;5066759;28;12234;-83
2024/01/28 09:52:53;;;;;;;;;22.33;21.00;;;;;;;;5065751;28;9511;-80
2024/01/28 09:55:19;;;;;;;;;29.33;24.33;;;;;;;;5086996;28;8731;-82
2024/01/28 09:57:45;;;;;;;;;27.00;25.67;;;;;;;;5088441;28;9479;-82
2024/01/28 10:00:11;;;;;;;;;23.33;23.00;;;;;;;;5060609;28;8943;-84
2024/01/28 10:02:40;;;;;;;;;31.00;26.00;;;;;;;;5080220;28;9586;-83
2024/01/28 10:05:18;;;;;;;;;25.33;23.33;;;;;;;;5084073;28;9277;-84
2024/01/28 10:07:44;;;;;;;;;29.00;26.00;;;;;;;;5062862;28;9503;-84
2024/01/28 10:10:12;;;;;;;;;31.67;25.00;;;;;;;;5073718;28;9342;-84
2024/01/28 10:12:37;;;;;;;;;52.75;43.00;;;;;;;;5085142;28;11176;-86
2024/01/28 10:15:06;;;;;;;;;38.00;32.50;;;;;;;;5073693;28;10388;-84
2024/01/28 10:17:31;;;;;;;;;24.00;24.00;;;;;;;;5082179;28;8836;-85
2024/01/28 10:19:57;;;;;;;;;26.67;26.67;;;;;;;;5072103;28;9370;-86
2024/01/28 10:22:22;;;;;;;;;29.00;26.67;;;;;;;;5072618;28;8855;-84
2024/01/28 10:24:49;;;;;;;;;23.00;20.00;;;;;;;;5084676;28;8980;-85
2024/01/28 10:27:14;;;;;;;;;22.33;18.33;;;;;;;;5070196;28;8834;-84
2024/01/28 10:29:40;;;;;;;;;18.00;17.00;;;;;;;;5094690;28;8943;-84
2024/01/28 10:32:06;;;;;;;;;22.25;20.50;;;;;;;;5077066;28;8815;-84
2024/01/28 10:34:31;;;;;;;;;22.33;19.33;;;;;;;;5090741;28;8792;-83
2024/01/28 10:36:59;;;;;;;;;18.75;17.25;;;;;;;;5096364;28;8747;-84
2024/01/28 10:39:25;;;;;;;;;22.50;19.50;;;;;;;;5082380;28;8838;-82
2024/01/28 10:41:54;;;;;;;;;18.00;18.00;;;;;;;;5075177;28;8834;-84
2024/01/28 10:44:20;;;;;;;;;18.75;17.25;;;;;;;;5091532;28;11402;-84
2024/01/28 10:46:48;;;;;;;;;18.00;15.00;;;;;;;;5099281;28;8824;-84
2024/01/28 10:49:15;;;;;;;;;25.50;21.75;;;;;;;;5111112;28;8773;-83
2024/01/28 10:51:41;;;;;;;;;24.50;19.50;;;;;;;;5089412;28;8780;-84
2024/01/28 10:54:07;;;;;;;;;18.33;16.33;;;;;;;;5087407;28;8865;-84
2024/01/28 10:56:43;;;;;;;;;20.00;19.00;;;;;;;;5069486;28;8799;-84
2024/01/28 10:59:08;;;;;;;;;17.75;15.50;;;;;;;;5109118;28;9203;-82
2024/01/28 11:01:34;;;;;;;;;19.00;16.00;;;;;;;;5072378;28;8855;-82
2024/01/28 11:04:00;;;;;;;;;22.00;18.00;;;;;;;;5069021;28;8838;-83
2024/01/28 11:06:31;;;;;;;;;23.33;19.67;;;;;;;;5083686;28;8832;-83
2024/01/28 11:08:57;;;;;;;;;21.25;20.00;;;;;;;;5069879;28;9702;-83
2024/01/28 11:11:22;;;;;;;;;19.50;19.50;;;;;;;;5084188;28;8805;-80
2024/01/28 11:13:48;;;;;;;;;27.33;22.67;;;;;;;;5076777;28;9676;-82
2024/01/28 11:16:15;;;;;;;;;23.67;21.67;;;;;;;;5085758;28;8951;-79
2024/01/28 11:18:40;;;;;;;;;24.50;19.50;;;;;;;;5086514;28;8736;-80
2024/01/28 11:21:09;;;;;;;;;21.33;19.00;;;;;;;;5093030;28;9621;-79
2024/01/28 11:23:40;;;;;;;;;16.00;15.75;;;;;;;;5088923;28;8791;-79
2024/01/28 11:26:11;;;;;;;;;26.00;21.50;;;;;;;;5095976;28;9722;-80
2024/01/28 11:28:36;;;;;;;;;23.50;22.50;;;;;;;;5093185;28;8775;-80
2024/01/28 11:31:01;;;;;;;;;24.67;20.00;;;;;;;;5106041;28;8835;-80
2024/01/28 11:33:34;;;;;;;;;22.33;20.33;;;;;;;;5081187;28;8822;-84
2024/01/28 11:36:01;;;;;;;;;18.25;18.00;;;;;;;;5079968;28;10150;-81
2024/01/28 11:38:31;;;;;;;;;27.50;21.00;;;;;;;;5067808;28;8829;-79
2024/01/28 11:40:57;;;;;;;;;27.00;24.75;;;;;;;;5069409;28;8917;-79
2024/01/28 11:43:23;;;;;;;;;22.75;20.50;;;;;;;;5077405;28;8769;-80
2024/01/28 11:45:48;;;;;;;;;21.00;18.33;;;;;;;;5065482;28;8836;-75
2024/01/28 11:48:14;;;;;;;;;25.33;22.33;;;;;;;;5082120;28;8821;-75
2024/01/28 11:50:39;;;;;;;;;21.00;17.33;;;;;;;;5081479;28;8810;-75
2024/01/28 11:53:05;;;;;;;;;20.67;20.33;;;;;;;;5085690;28;8852;-75
2024/01/28 11:55:30;;;;;;;;;22.67;18.33;;;;;;;;5087558;28;8814;-76
2024/01/28 11:57:56;;;;;;;;;21.67;21.33;;;;;;;;5080515;28;8831;-74
2024/01/28 12:00:21;;;;;;;;;23.67;20.33;;;;;;;;5068525;28;10081;-76
2024/01/28 12:02:46;;;;;;;;;25.33;20.67;;;;;;;;5086427;28;8831;-80
2024/01/28 12:05:12;;;;;;;;;27.67;24.00;;;;;;;;5089330;28;8834;-80
2024/01/28 12:07:38;;;;;;;;;23.00;21.33;;;;;;;;5085141;28;8830;-80
2024/01/28 12:10:06;;;;;;;;;27.25;21.50;;;;;;;;5060692;28;8920;-79
2024/01/28 12:12:34;;;;;;;;;26.33;24.33;;;;;;;;5073652;28;8814;-76
2024/01/28 12:15:03;;;;;;;;;23.25;22.00;;;;;;;;5071836;28;8990;-76
2024/01/28 12:17:32;;;;;;;;;31.75;28.25;;;;;;;;5086880;28;8806;-75
2024/01/28 12:19:58;;;;;;;;;28.00;22.25;;;;;;;;5059365;28;8797;-75
2024/01/28 12:22:26;;;;;;;;;29.33;23.33;;;;;;;;5073453;28;8862;-75
2024/01/28 12:24:51;;;;;;;;;25.75;23.25;;;;;;;;5082101;28;8810;-75
2024/01/28 12:27:16;;;;;;;;;28.67;24.00;;;;;;;;5085109;28;8826;-75
2024/01/28 12:29:41;;;;;;;;;22.67;22.67;;;;;;;;5073688;28;8844;-75
2024/01/28 12:32:07;;;;;;;;;28.33;24.00;;;;;;;;5075306;28;8816;-81
2024/01/28 12:34:34;;;;;;;;;29.33;28.00;;;;;;;;5083313;28;8818;-80
2024/01/28 12:36:59;;;;;;;;;25.33;24.00;;;;;;;;5079516;28;11458;-80
2024/01/28 12:39:24;;;;;;;;;41.67;33.67;;;;;;;;5076133;28;8965;-79
2024/01/28 12:41:49;;;;;;;;;22.33;22.33;;;;;;;;5076750;28;8861;-81
2024/01/28 12:44:15;;;;;;;;;27.67;25.67;;;;;;;;5096750;28;8822;-80
2024/01/28 12:46:40;;;;;;;;;29.00;26.33;;;;;;;;5070752;28;8828;-81
2024/01/28 12:49:05;;;;;;;;;24.00;22.33;;;;;;;;5096578;28;8860;-80
2024/01/28 12:51:30;;;;;;;;;29.67;25.33;;;;;;;;5094213;28;8843;-81
2024/01/28 12:57:38;;;;;;;;;38.00;30.33;;;;;;;;5105187;28;9196;-89
2024/01/28 13:00:10;;;;;;;;;30.00;26.00;;;;;;;;5053730;28;9418;-86
2024/01/28 13:02:36;;;;;;;;;36.00;30.00;;;;;;;;5105807;28;9197;-87
2024/01/28 13:05:01;;;;;;;;;31.67;29.00;;;;;;;;5076239;28;9333;-83
2024/01/28 13:07:26;;;;;;;;;31.00;24.67;;;;;;;;5085104;28;8796;-81
2024/01/28 13:09:52;;;;;;;;;32.00;26.33;;;;;;;;5070874;28;8903;-82
2024/01/28 13:12:17;;;;;;;;;31.33;27.33;;;;;;;;5076060;28;8812;-81
2024/01/28 13:14:42;;;;;;;;;31.00;30.00;;;;;;;;5096635;28;8805;-81
2024/01/28 13:17:08;;;;;;;;;29.67;28.00;;;;;;;;5098247;28;8807;-86
2024/01/28 13:19:33;;;;;;;;;36.33;30.33;;;;;;;;5078917;28;8941;-81
2024/01/28 13:22:02;;;;;;;;;28.67;28.00;;;;;;;;5094642;28;8835;-86
2024/01/28 13:24:28;;;;;;;;;29.67;26.00;;;;;;;;5074398;28;8799;-87
2024/01/28 13:26:53;;;;;;;;;26.67;25.00;;;;;;;;5073054;28;9005;-85
2024/01/28 13:29:22;;;;;;;;;32.00;26.00;;;;;;;;5066507;28;8777;-88
2024/01/28 13:31:49;;;;;;;;;30.33;26.00;;;;;;;;5068506;28;8799;-82
2024/01/28 13:34:15;;;;;;;;;29.00;27.33;;;;;;;;5069864;28;9046;-83
2024/01/28 13:36:40;;;;;;;;;37.33;30.00;;;;;;;;5074494;28;9791;-82
2024/01/28 13:39:05;;;;;;;;;28.67;24.67;;;;;;;;5090464;28;8868;-82
2024/01/28 13:41:33;;;;;;;;;34.00;28.00;;;;;;;;5092779;28;8823;-83
2024/01/28 13:43:59;;;;;;;;;30.00;25.00;;;;;;;;5083018;28;9028;-84
2024/01/28 13:46:25;;;;;;;;;29.00;28.00;;;;;;;;5097805;28;8775;-88
2024/01/28 13:48:51;;;;;;;;;32.67;28.00;;;;;;;;5078276;28;9056;-86
2024/01/28 13:51:16;;;;;;;;;37.33;31.00;;;;;;;;5077977;28;11196;-88
2024/01/28 13:53:42;;;;;;;;;61.00;45.75;;;;;;;;5073867;28;8959;-87
2024/01/28 13:56:12;;;;;;;;;29.67;29.33;;;;;;;;5082210;28;8806;-89
2024/01/28 13:58:38;;;;;;;;;29.67;28.33;;;;;;;;5092304;28;8798;-89
2024/01/28 14:01:09;;;;;;;;;61.25;48.50;;;;;;;;5095496;28;9341;-89
2024/01/28 14:03:37;;;;;;;;;34.33;28.00;;;;;;;;5084001;28;8785;-88
2024/01/28 14:06:14;;;;;;;;;72.75;56.25;;;;;;;;5102377;28;9027;-89
2024/01/28 14:09:17;;;;;;;;;;;;;;;;;;;;;
2024/01/28 14:11:43;;;;;;;;;33.67;30.33;;;;;;;;5093090;28;35814;-88
2024/01/28 14:14:29;;;;;;;;;;;;;;;;;;;;;
2024/01/28 14:17:20;;;;;;;;;46.50;38.00;;;;;;;;5107693;28;35972;-90
2024/01/28 14:19:49;;;;;;;;;27.67;25.67;;;;;;;;5111742;28;9919;-88
2024/01/28 14:22:27;;;;;;;;;30.67;26.33;;;;;;;;5072396;28;9194;-89
2024/01/28 14:25:25;;;;;;;;;;;;;;;;;;;;;
2024/01/28 14:28:02;;;;;;;;;51.25;41.50;;;;;;;;5082161;28;9013;-85
2024/01/28 14:30:28;;;;;;;;;31.33;29.33;;;;;;;;5079087;28;10112;-84